Flight Track Log - Related Links

Times and Time Zones

All times are in EDT time to prevent confusion due to time zone crossing. See the EJA922 flight status page for this flight to view local times or setup timezone preferences in your user account.

Time Position Orientation Groundspeed Altitude Reporting Facility
EDT Latitude Longitude Course Direction KTS MPH feet Rate Location/Type
Mon 07:16:32 PM 36.0767 -115.1814 244° Southwest 183 211 4,500  Level Los Angeles Center
Mon 07:17:57 PM 36.0419 -115.2697 244° Southwest 259 298 7,000 1,500 Climbing Los Angeles Center
Mon 07:18:12 PM 36.0289 -115.2739 194° South 262 302 7,000  Level Los Angeles Center
Mon 07:18:52 PM 35.9689 -115.3017 201° Southwest 297 342 7,000  Level Los Angeles Center
Mon 07:19:13 PM 35.9503 -115.3053 189° South 289 333 7,000 1,012 Level Los Angeles Center
Mon 07:20:15 PM 35.8664 -115.3114 183° South 296 341 8,400 2,032 Climbing Los Angeles Center
Mon 07:21:17 PM 35.7808 -115.3044 176° South 309 356 11,200 2,274 Climbing Los Angeles Center
Mon 07:22:19 PM 35.6597 -115.3236 187° South 360 414 13,100 2,371 Climbing Los Angeles Center
Mon 07:23:21 PM 35.5811 -115.4225 226° Southwest 392 451 16,100 2,661 Climbing Los Angeles Center
Mon 07:24:23 PM 35.5053 -115.5239 227° Southwest 398 458 18,600 2,341 Climbing Los Angeles Center
Mon 07:25:24 PM 35.4314 -115.6269 229° Southwest 405 466 20,900 2,049 Climbing Los Angeles Center
Mon 07:26:26 PM 35.3542 -115.7303 228° Southwest 410 472 22,800 1,742 Climbing Los Angeles Center
Mon 07:27:28 PM 35.2747 -115.8344 227° Southwest 416 479 24,500 1,694 Climbing Los Angeles Center
Mon 07:28:30 PM 35.1936 -115.9419 227° Southwest 425 489 26,300 1,412 Climbing Los Angeles Center
Mon 07:29:44 PM 35.0947 -116.0744 228° Southwest 439 505 27,700 689 Climbing Los Angeles Center
Mon 07:30:58 PM 34.9864 -116.2153 227° Southwest 467 537 28,000 132 Climbing Los Angeles Center
Mon 07:32:00 PM 34.8717 -116.3647 227° Southwest 488 562 28,000 -194 Level Los Angeles Center
Mon 07:33:02 PM 34.7728 -116.4911 226° Southwest 504 580 27,600 -677 Descending Los Angeles Center
Mon 07:34:04 PM 34.6714 -116.6161 225° Southwest 512 589 26,600 -1,935 Descending Los Angeles Center
Mon 07:35:06 PM 34.5739 -116.7361 225° Southwest 502 578 23,600 -3,677 Descending Los Angeles Center
Mon 07:36:08 PM 34.4628 -116.8697 225° Southwest 482 555 19,000 -4,161 Descending Los Angeles Center
Mon 07:37:10 PM 34.3750 -116.9772 225° Southwest 442 509 15,000 -3,366 Descending Los Angeles Center
Mon 07:38:11 PM 34.2939 -117.0758 225° Southwest 419 482 12,100 -1,512 Descending Los Angeles Center
Mon 07:39:13 PM 34.2258 -117.1567 224° Southwest 347 399 11,900 -353 Descending Los Angeles Center
Mon 07:40:27 PM 34.1689 -117.2064 216° Southwest 282 325 11,300 -939 Descending Los Angeles Center
Mon 07:41:08 PM 34.1000 -117.2333 198° South 268 308 10,100 -1,604 Descending Southern California TRACON
Mon 07:42:08 PM 34.0500 -117.2833 220° Southwest 252 290 8,600 -1,750 Descending Southern California TRACON
Mon 07:43:08 PM 34.0500 -117.3500 270° West 231 266 6,600 -2,250 Descending Southern California TRACON
Mon 07:44:08 PM 34.0500 -117.4333 270° West 219 252 4,100 -2,150 Descending Southern California TRACON
Mon 07:45:08 PM 34.0500 -117.5000 270° West 194 223 2,300 -1,250 Descending Southern California TRACON
Mon 07:46:08 PM 34.0500 -117.5500 270° West 167 192 1,600 -474 Descending Southern California TRACON
Mon 07:47:40 PM 34.0528 -117.6147 273° West 171 197 1,100 -326 Descending Los Angeles Center
Mon 07:49:00 PM 34.0500 -117.6000 North  Level FlightAware Approximate
Mon 07:56:00 PM 34.0560 -117.6012 North  Level Estimated

Login

Don't have an account? Register now (free) for customized features, flight alerts, and more!